sensor_id;sensor_type;location;lat;lon;timestamp;pressure;altitude;pressure_sealevel;temperature;humidity
70952;BME280;69214;55.880;37.542;2023-07-13T00:01:47;97939.28;;;12.28;70.72
70952;BME280;69214;55.880;37.542;2023-07-13T00:04:16;97932.47;;;12.26;70.80
70952;BME280;69214;55.880;37.542;2023-07-13T00:06:44;97931.63;;;12.30;70.64
70952;BME280;69214;55.880;37.542;2023-07-13T00:09:12;97945.28;;;12.30;70.82
70952;BME280;69214;55.880;37.542;2023-07-13T00:11:39;97935.72;;;12.28;70.97
70952;BME280;69214;55.880;37.542;2023-07-13T00:14:07;97933.81;;;12.28;71.19
70952;BME280;69214;55.880;37.542;2023-07-13T00:16:34;97933.81;;;12.28;71.15
70952;BME280;69214;55.880;37.542;2023-07-13T00:19:00;97939.56;;;12.27;71.24
70952;BME280;69214;55.880;37.542;2023-07-13T00:21:26;97931.38;;;12.22;71.19
70952;BME280;69214;55.880;37.542;2023-07-13T00:23:52;97926.72;;;12.22;70.88
70952;BME280;69214;55.880;37.542;2023-07-13T00:26:18;97933.28;;;12.26;70.81
70952;BME280;69214;55.880;37.542;2023-07-13T00:28:44;97927.28;;;12.24;71.41
70952;BME280;69214;55.880;37.542;2023-07-13T00:31:11;97921.00;;;12.19;71.36
70952;BME280;69214;55.880;37.542;2023-07-13T00:33:37;97931.94;;;12.24;71.32
70952;BME280;69214;55.880;37.542;2023-07-13T00:36:04;97931.94;;;12.24;71.43
70952;BME280;69214;55.880;37.542;2023-07-13T00:38:30;97931.09;;;12.23;71.23
70952;BME280;69214;55.880;37.542;2023-07-13T00:40:56;97933.03;;;12.18;71.51
70952;BME280;69214;55.880;37.542;2023-07-13T00:43:26;97928.38;;;12.23;71.64
70952;BME280;69214;55.880;37.542;2023-07-13T00:48:25;97935.47;;;12.24;71.52
70952;BME280;69214;55.880;37.542;2023-07-13T00:50:53;97927.28;;;12.24;71.80
70952;BME280;69214;55.880;37.542;2023-07-13T00:53:21;97931.94;;;12.24;72.01
70952;BME280;69214;55.880;37.542;2023-07-13T00:55:49;97897.25;;;12.09;71.21
70952;BME280;69214;55.880;37.542;2023-07-13T00:58:16;97927.81;;;12.26;71.82
70952;BME280;69214;55.880;37.542;2023-07-13T01:00:44;97924.25;;;12.26;71.25
70952;BME280;69214;55.880;37.542;2023-07-13T01:03:13;97913.91;;;12.18;71.89
70952;BME280;69214;55.880;37.542;2023-07-13T01:05:39;97917.72;;;12.22;72.21
70952;BME280;69214;55.880;37.542;2023-07-13T01:08:04;97921.25;;;12.22;71.95
70952;BME280;69214;55.880;37.542;2023-07-13T01:10:32;97925.63;;;12.23;72.14
70952;BME280;69214;55.880;37.542;2023-07-13T01:13:09;97908.41;;;12.23;71.22
70952;BME280;69214;55.880;37.542;2023-07-13T01:15:44;97920.16;;;12.28;70.38
70952;BME280;69214;55.880;37.542;2023-07-13T01:18:16;97914.13;;;12.31;71.41
70952;BME280;69214;55.880;37.542;2023-07-13T01:21:13;97913.00;;;12.32;69.47
70952;BME280;69214;55.880;37.542;2023-07-13T01:23:39;97917.38;;;12.33;71.70
70952;BME280;69214;55.880;37.542;2023-07-13T01:26:05;97913.53;;;12.35;72.03
70952;BME280;69214;55.880;37.542;2023-07-13T01:28:31;97896.63;;;12.27;72.13
70952;BME280;69214;55.880;37.542;2023-07-13T01:30:58;97902.34;;;12.31;71.76
70952;BME280;69214;55.880;37.542;2023-07-13T01:33:25;97906.41;;;12.39;71.91
70952;BME280;69214;55.880;37.542;2023-07-13T01:35:51;97915.16;;;12.41;72.15
70952;BME280;69214;55.880;37.542;2023-07-13T01:38:19;97904.22;;;12.41;71.63
70952;BME280;69214;55.880;37.542;2023-07-13T01:40:46;97906.66;;;12.42;72.00
70952;BME280;69214;55.880;37.542;2023-07-13T01:43:11;97900.94;;;12.39;72.34
70952;BME280;69214;55.880;37.542;2023-07-13T01:45:38;97903.38;;;12.45;72.21
70952;BME280;69214;55.880;37.542;2023-07-13T01:48:05;97906.66;;;12.47;72.06
70952;BME280;69214;55.880;37.542;2023-07-13T01:50:33;97905.28;;;12.45;72.02
70952;BME280;69214;55.880;37.542;2023-07-13T01:52:59;97904.97;;;12.51;71.96
70952;BME280;69214;55.880;37.542;2023-07-13T01:55:25;97898.94;;;12.54;72.02
70952;BME280;69214;55.880;37.542;2023-07-13T01:57:51;97895.91;;;12.56;72.24
70952;BME280;69214;55.880;37.542;2023-07-13T02:00:18;97896.19;;;12.59;72.26
70952;BME280;69214;55.880;37.542;2023-07-13T02:02:47;97895.88;;;12.61;72.03
70952;BME280;69214;55.880;37.542;2023-07-13T02:05:14;97893.13;;;12.66;71.75
70952;BME280;69214;55.880;37.542;2023-07-13T02:07:41;97896.94;;;12.70;71.71
70952;BME280;69214;55.880;37.542;2023-07-13T02:10:09;97874.78;;;12.67;71.76
70952;BME280;69214;55.880;37.542;2023-07-13T02:12:36;97877.97;;;12.79;71.95
70952;BME280;69214;55.880;37.542;2023-07-13T02:15:04;97883.09;;;12.90;71.33
70952;BME280;69214;55.880;37.542;2023-07-13T02:17:34;97890.97;;;12.97;71.18
70952;BME280;69214;55.880;37.542;2023-07-13T02:20:02;97887.38;;;13.02;70.86
70952;BME280;69214;55.880;37.542;2023-07-13T02:22:31;97888.44;;;13.06;70.91
70952;BME280;69214;55.880;37.542;2023-07-13T02:24:57;97879.94;;;13.07;71.08
70952;BME280;69214;55.880;37.542;2023-07-13T02:27:25;97869.03;;;13.02;71.01
70952;BME280;69214;55.880;37.542;2023-07-13T02:29:52;97883.75;;;13.11;70.96
70952;BME280;69214;55.880;37.542;2023-07-13T02:32:20;97873.31;;;13.13;70.94
70952;BME280;69214;55.880;37.542;2023-07-13T02:34:45;97867.56;;;13.15;70.97
70952;BME280;69214;55.880;37.542;2023-07-13T02:37:12;97864.81;;;13.15;71.11
70952;BME280;69214;55.880;37.542;2023-07-13T02:39:38;97862.06;;;13.20;70.83
70952;BME280;69214;55.880;37.542;2023-07-13T02:42:04;97868.59;;;13.24;70.41
70952;BME280;69214;55.880;37.542;2023-07-13T02:44:30;97878.69;;;13.28;70.61
70952;BME280;69214;55.880;37.542;2023-07-13T02:46:56;97866.38;;;13.26;70.66
70952;BME280;69214;55.880;37.542;2023-07-13T02:49:22;97882.19;;;13.34;70.33
70952;BME280;69214;55.880;37.542;2023-07-13T02:51:48;97865.25;;;13.32;70.50
70952;BME280;69214;55.880;37.542;2023-07-13T02:54:13;97875.09;;;13.33;70.55
70952;BME280;69214;55.880;37.542;2023-07-13T02:56:40;97853.28;;;13.23;70.49
70952;BME280;69214;55.880;37.542;2023-07-13T02:59:06;97865.19;;;13.37;70.56
70952;BME280;69214;55.880;37.542;2023-07-13T03:01:32;97848.03;;;13.26;70.82
70952;BME280;69214;55.880;37.542;2023-07-13T03:04:01;97864.31;;;13.42;70.69
70952;BME280;69214;55.880;37.542;2023-07-13T03:06:28;97859.41;;;13.39;71.04
70952;BME280;69214;55.880;37.542;2023-07-13T03:08:56;97860.72;;;13.46;70.48
70952;BME280;69214;55.880;37.542;2023-07-13T03:11:23;97853.59;;;13.45;70.69
70952;BME280;69214;55.880;37.542;2023-07-13T03:14:09;97867.44;;;13.59;70.21
70952;BME280;69214;55.880;37.542;2023-07-13T03:16:37;97851.84;;;13.54;70.04
70952;BME280;69214;55.880;37.542;2023-07-13T03:19:03;97870.41;;;13.63;70.64
70952;BME280;69214;55.880;37.542;2023-07-13T03:21:29;97872.84;;;13.64;69.75
70952;BME280;69214;55.880;37.542;2023-07-13T03:23:55;97865.22;;;13.61;70.26
70952;BME280;69214;55.880;37.542;2023-07-13T03:26:21;97852.63;;;13.60;69.89
70952;BME280;69214;55.880;37.542;2023-07-13T03:28:48;97866.28;;;13.65;70.15
70952;BME280;69214;55.880;37.542;2023-07-13T03:31:24;97870.28;;;13.73;69.83
70952;BME280;69214;55.880;37.542;2023-07-13T03:33:51;97877.34;;;13.79;69.74
70952;BME280;69214;55.880;37.542;2023-07-13T03:36:20;97861.97;;;13.83;69.41
70952;BME280;69214;55.880;37.542;2023-07-13T03:38:48;97875.78;;;13.97;69.20
70952;BME280;69214;55.880;37.542;2023-07-13T03:41:17;97879.22;;;14.07;69.15
70952;BME280;69214;55.880;37.542;2023-07-13T03:43:43;97877.44;;;14.16;69.19
70952;BME280;69214;55.880;37.542;2023-07-13T03:46:10;97878.44;;;14.25;68.85
70952;BME280;69214;55.880;37.542;2023-07-13T03:48:36;97880.00;;;14.32;68.72
70952;BME280;69214;55.880;37.542;2023-07-13T03:51:02;97875.78;;;14.39;68.70
70952;BME280;69214;55.880;37.542;2023-07-13T03:53:29;97870.25;;;14.44;68.29
70952;BME280;69214;55.880;37.542;2023-07-13T03:55:55;97873.59;;;14.60;67.80
70952;BME280;69214;55.880;37.542;2023-07-13T03:58:33;97865.22;;;14.70;66.81
70952;BME280;69214;55.880;37.542;2023-07-13T04:01:11;97875.56;;;14.92;67.36
70952;BME280;69214;55.880;37.542;2023-07-13T04:03:38;97884.47;;;15.03;67.00
70952;BME280;69214;55.880;37.542;2023-07-13T04:06:06;97875.94;;;15.04;66.47
70952;BME280;69214;55.880;37.542;2023-07-13T04:08:34;97881.72;;;15.03;66.30
70952;BME280;69214;55.880;37.542;2023-07-13T04:11:01;97887.81;;;15.00;66.26
70952;BME280;69214;55.880;37.542;2023-07-13T04:13:28;97885.88;;;15.00;66.46
70952;BME280;69214;55.880;37.542;2023-07-13T04:15:54;97896.56;;;15.02;66.54
70952;BME280;69214;55.880;37.542;2023-07-13T04:18:20;97895.16;;;15.04;67.00
70952;BME280;69214;55.880;37.542;2023-07-13T04:20:47;97883.97;;;15.01;66.83
70952;BME280;69214;55.880;37.542;2023-07-13T04:23:15;97887.44;;;15.06;66.76
70952;BME280;69214;55.880;37.542;2023-07-13T04:25:48;97882.53;;;15.03;65.59
70952;BME280;69214;55.880;37.542;2023-07-13T04:28:15;97878.31;;;14.92;66.71
70952;BME280;69214;55.880;37.542;2023-07-13T04:30:43;97883.50;;;14.94;66.73
70952;BME280;69214;55.880;37.542;2023-07-13T04:33:09;97892.28;;;14.96;66.84
70952;BME280;69214;55.880;37.542;2023-07-13T04:35:35;97883.31;;;14.90;67.09
70952;BME280;69214;55.880;37.542;2023-07-13T04:38:02;97895.53;;;14.98;66.74
70952;BME280;69214;55.880;37.542;2023-07-13T04:40:29;97886.91;;;15.04;67.03
70952;BME280;69214;55.880;37.542;2023-07-13T04:42:55;97876.97;;;15.08;66.22
70952;BME280;69214;55.880;37.542;2023-07-13T04:45:22;97887.78;;;15.18;66.19
70952;BME280;69214;55.880;37.542;2023-07-13T04:47:50;97885.91;;;15.33;66.41
70952;BME280;69214;55.880;37.542;2023-07-13T04:50:16;97886.53;;;15.43;65.65
70952;BME280;69214;55.880;37.542;2023-07-13T04:52:46;97870.16;;;15.52;65.14
70952;BME280;69214;55.880;37.542;2023-07-13T04:55:13;97881.91;;;15.71;65.04
70952;BME280;69214;55.880;37.542;2023-07-13T04:57:39;97882.00;;;15.80;64.56
70952;BME280;69214;55.880;37.542;2023-07-13T05:00:05;97865.81;;;15.78;64.82
70952;BME280;69214;55.880;37.542;2023-07-13T05:02:33;97876.09;;;15.86;64.57
70952;BME280;69214;55.880;37.542;2023-07-13T05:05:00;97883.94;;;15.93;64.92
70952;BME280;69214;55.880;37.542;2023-07-13T05:07:25;97870.59;;;16.00;64.99
70952;BME280;69214;55.880;37.542;2023-07-13T05:09:52;97888.84;;;16.24;64.43
70952;BME280;69214;55.880;37.542;2023-07-13T05:12:18;97895.44;;;16.50;63.79
70952;BME280;69214;55.880;37.542;2023-07-13T05:14:43;97895.91;;;16.79;63.23
70952;BME280;69214;55.880;37.542;2023-07-13T05:17:10;97892.31;;;17.15;62.57
70952;BME280;69214;55.880;37.542;2023-07-13T05:19:36;97892.91;;;17.57;61.15
70952;BME280;69214;55.880;37.542;2023-07-13T05:22:02;97897.19;;;17.94;60.38
70952;BME280;69214;55.880;37.542;2023-07-13T05:24:29;97888.53;;;18.26;59.38
70952;BME280;69214;55.880;37.542;2023-07-13T05:26:55;97889.91;;;18.55;58.66
70952;BME280;69214;55.880;37.542;2023-07-13T05:29:21;97893.53;;;18.81;58.19
70952;BME280;69214;55.880;37.542;2023-07-13T05:31:47;97888.66;;;19.13;57.21
70952;BME280;69214;55.880;37.542;2023-07-13T05:34:13;97872.38;;;19.28;56.27
70952;BME280;69214;55.880;37.542;2023-07-13T05:36:39;97887.97;;;19.41;56.34
70952;BME280;69214;55.880;37.542;2023-07-13T05:39:05;97879.50;;;19.47;56.14
70952;BME280;69214;55.880;37.542;2023-07-13T05:41:31;97880.34;;;19.56;55.67
70952;BME280;69214;55.880;37.542;2023-07-13T05:43:57;97881.47;;;19.55;55.67
70952;BME280;69214;55.880;37.542;2023-07-13T05:46:23;97879.50;;;19.64;54.95
70952;BME280;69214;55.880;37.542;2023-07-13T05:48:48;97884.22;;;19.63;55.29
70952;BME280;69214;55.880;37.542;2023-07-13T05:51:14;97887.44;;;19.74;54.68
70952;BME280;69214;55.880;37.542;2023-07-13T05:53:40;97876.78;;;19.93;54.66
70952;BME280;69214;55.880;37.542;2023-07-13T05:56:06;97881.22;;;20.24;53.81
70952;BME280;69214;55.880;37.542;2023-07-13T05:58:31;97864.19;;;20.43;53.22
70952;BME280;69214;55.880;37.542;2023-07-13T06:01:06;97861.78;;;20.62;54.97
70952;BME280;69214;55.880;37.542;2023-07-13T06:03:33;97849.00;;;20.69;52.95
70952;BME280;69214;55.880;37.542;2023-07-13T06:05:59;97852.31;;;20.63;52.56
70952;BME280;69214;55.880;37.542;2023-07-13T06:08:28;97862.66;;;20.54;52.48
70952;BME280;69214;55.880;37.542;2023-07-13T06:10:54;97854.25;;;20.42;52.59
70952;BME280;69214;55.880;37.542;2023-07-13T06:13:20;97843.06;;;20.29;52.71
70952;BME280;69214;55.880;37.542;2023-07-13T06:15:49;97857.06;;;20.33;54.52
70952;BME280;69214;55.880;37.542;2023-07-13T06:18:15;97860.38;;;20.56;52.16
70952;BME280;69214;55.880;37.542;2023-07-13T06:20:41;97856.69;;;20.85;51.46
70952;BME280;69214;55.880;37.542;2023-07-13T06:23:07;97854.44;;;21.20;50.73
70952;BME280;69214;55.880;37.542;2023-07-13T06:25:33;97845.06;;;21.45;50.17
70952;BME280;69214;55.880;37.542;2023-07-13T06:27:58;97842.03;;;21.83;49.08
70952;BME280;69214;55.880;37.542;2023-07-13T06:30:24;97842.31;;;22.27;48.17
70952;BME280;69214;55.880;37.542;2023-07-13T06:32:50;97852.56;;;22.87;47.02
70952;BME280;69214;55.880;37.542;2023-07-13T06:35:16;97849.59;;;23.36;45.85
70952;BME280;69214;55.880;37.542;2023-07-13T06:37:42;97834.41;;;23.62;44.98
70952;BME280;69214;55.880;37.542;2023-07-13T06:40:08;97848.69;;;23.60;44.99
70952;BME280;69214;55.880;37.542;2023-07-13T06:42:34;97850.91;;;23.26;45.54
70952;BME280;69214;55.880;37.542;2023-07-13T06:45:00;97848.25;;;22.78;46.18
70952;BME280;69214;55.880;37.542;2023-07-13T06:47:26;97854.00;;;22.20;47.75
70952;BME280;69214;55.880;37.542;2023-07-13T06:49:52;97849.41;;;21.67;48.50
70952;BME280;69214;55.880;37.542;2023-07-13T06:52:18;97852.97;;;21.22;49.10
70952;BME280;69214;55.880;37.542;2023-07-13T06:54:44;97851.16;;;20.85;49.59
70952;BME280;69214;55.880;37.542;2023-07-13T06:57:10;97835.00;;;20.45;50.24
70952;BME280;69214;55.880;37.542;2023-07-13T06:59:35;97847.97;;;20.24;50.50
70952;BME280;69214;55.880;37.542;2023-07-13T07:02:01;97844.53;;;19.97;51.10
70952;BME280;69214;55.880;37.542;2023-07-13T07:04:27;97837.63;;;19.74;51.91
70952;BME280;69214;55.880;37.542;2023-07-13T07:06:53;97838.63;;;19.69;51.98
70952;BME280;69214;55.880;37.542;2023-07-13T07:09:18;97839.28;;;19.66;52.01
70952;BME280;69214;55.880;37.542;2023-07-13T07:11:44;97830.09;;;19.83;51.14
70952;BME280;69214;55.880;37.542;2023-07-13T07:14:12;97842.34;;;20.12;50.63
70952;BME280;69214;55.880;37.542;2023-07-13T07:16:38;97844.97;;;20.37;50.08
70952;BME280;69214;55.880;37.542;2023-07-13T07:19:04;97837.28;;;20.43;49.24
70952;BME280;69214;55.880;37.542;2023-07-13T07:21:29;97856.91;;;20.59;49.65
70952;BME280;69214;55.880;37.542;2023-07-13T07:23:56;97857.72;;;20.59;49.47
70952;BME280;69214;55.880;37.542;2023-07-13T07:26:22;97862.19;;;20.52;49.54
70952;BME280;69214;55.880;37.542;2023-07-13T07:28:48;97871.22;;;20.40;50.00
70952;BME280;69214;55.880;37.542;2023-07-13T07:31:14;97861.53;;;20.17;50.35
70952;BME280;69214;55.880;37.542;2023-07-13T07:33:40;97855.59;;;19.97;50.60
70952;BME280;69214;55.880;37.542;2023-07-13T07:36:06;97851.16;;;19.67;51.15
70952;BME280;69214;55.880;37.542;2023-07-13T07:38:32;97866.31;;;19.61;52.36
70952;BME280;69214;55.880;37.542;2023-07-13T07:40:57;97872.03;;;19.56;52.33
70952;BME280;69214;55.880;37.542;2023-07-13T07:43:23;97867.97;;;19.45;52.89
70952;BME280;69214;55.880;37.542;2023-07-13T07:45:49;97872.69;;;19.44;52.77
70952;BME280;69214;55.880;37.542;2023-07-13T07:48:15;97874.00;;;19.38;53.19
70952;BME280;69214;55.880;37.542;2023-07-13T07:50:41;97868.16;;;19.22;53.74
70952;BME280;69214;55.880;37.542;2023-07-13T07:53:07;97871.75;;;18.97;54.36
70952;BME280;69214;55.880;37.542;2023-07-13T07:55:34;97875.00;;;18.73;55.37
70952;BME280;69214;55.880;37.542;2023-07-13T07:58:00;97870.06;;;18.53;56.68
70952;BME280;69214;55.880;37.542;2023-07-13T08:00:26;97862.56;;;18.36;57.36
70952;BME280;69214;55.880;37.542;2023-07-13T08:02:54;97865.78;;;18.29;56.84
70952;BME280;69214;55.880;37.542;2023-07-13T08:05:20;97860.09;;;18.26;56.71
70952;BME280;69214;55.880;37.542;2023-07-13T08:07:46;97868.88;;;18.28;57.06
70952;BME280;69214;55.880;37.542;2023-07-13T08:10:12;97871.78;;;18.23;57.28
70952;BME280;69214;55.880;37.542;2023-07-13T08:12:38;97868.38;;;18.26;57.80
70952;BME280;69214;55.880;37.542;2023-07-13T08:15:06;97873.75;;;18.31;57.63
70952;BME280;69214;55.880;37.542;2023-07-13T08:17:34;97864.97;;;18.29;57.65
70952;BME280;69214;55.880;37.542;2023-07-13T08:20:00;97874.91;;;18.38;57.87
70952;BME280;69214;55.880;37.542;2023-07-13T08:22:27;97879.97;;;18.45;57.49
70952;BME280;69214;55.880;37.542;2023-07-13T08:24:53;97858.03;;;18.49;57.21
70952;BME280;69214;55.880;37.542;2023-07-13T08:27:23;97863.72;;;18.43;56.52
70952;BME280;69214;55.880;37.542;2023-07-13T08:29:49;97866.47;;;18.35;56.76
70952;BME280;69214;55.880;37.542;2023-07-13T08:32:15;97870.34;;;18.34;57.02
70952;BME280;69214;55.880;37.542;2023-07-13T08:34:42;97879.31;;;18.39;57.08
70952;BME280;69214;55.880;37.542;2023-07-13T08:37:08;97874.91;;;18.38;57.15
70952;BME280;69214;55.880;37.542;2023-07-13T08:39:35;97878.00;;;18.45;56.66
70952;BME280;69214;55.880;37.542;2023-07-13T08:42:14;97871.50;;;18.41;56.61
70952;BME280;69214;55.880;37.542;2023-07-13T08:45:03;97875.22;;;18.37;57.25
70952;BME280;69214;55.880;37.542;2023-07-13T08:47:35;97881.75;;;18.41;57.20
70952;BME280;69214;55.880;37.542;2023-07-13T08:50:03;97886.31;;;18.45;57.42
70952;BME280;69214;55.880;37.542;2023-07-13T08:52:36;97887.94;;;18.47;56.64
70952;BME280;69214;55.880;37.542;2023-07-13T08:55:15;97893.13;;;18.48;56.37
70952;BME280;69214;55.880;37.542;2023-07-13T08:57:46;97898.81;;;18.52;56.83
70952;BME280;69214;55.880;37.542;2023-07-13T09:00:14;97903.38;;;18.48;56.88
70952;BME280;69214;55.880;37.542;2023-07-13T09:02:43;97896.84;;;18.43;57.36
70952;BME280;69214;55.880;37.542;2023-07-13T09:05:18;97898.00;;;18.42;57.30
70952;BME280;69214;55.880;37.542;2023-07-13T09:10:40;97910.19;;;18.41;57.05
70952;BME280;69214;55.880;37.542;2023-07-13T09:13:35;97914.88;;;18.41;56.94
70952;BME280;69214;55.880;37.542;2023-07-13T09:16:03;97909.47;;;18.27;58.02
70952;BME280;69214;55.880;37.542;2023-07-13T09:18:35;97913.03;;;18.19;57.94
70952;BME280;69214;55.880;37.542;2023-07-13T09:21:16;97916.25;;;18.12;57.76
70952;BME280;69214;55.880;37.542;2023-07-13T09:23:47;97904.41;;;18.12;58.38
70952;BME280;69214;55.880;37.542;2023-07-13T09:26:16;97906.38;;;18.20;58.62
70952;BME280;69214;55.880;37.542;2023-07-13T09:28:46;97915.03;;;18.36;58.32
70952;BME280;69214;55.880;37.542;2023-07-13T09:31:22;97904.34;;;18.43;57.32
70952;BME280;69214;55.880;37.542;2023-07-13T09:33:49;97909.03;;;18.42;59.02
70952;BME280;69214;55.880;37.542;2023-07-13T09:36:26;97910.19;;;18.41;57.81
70952;BME280;69214;55.880;37.542;2023-07-13T09:41:53;97892.44;;;18.34;57.96
70952;BME280;69214;55.880;37.542;2023-07-13T09:44:36;97897.84;;;18.48;57.48
70952;BME280;69214;55.880;37.542;2023-07-13T09:47:03;97897.34;;;18.45;59.11
70952;BME280;69214;55.880;37.542;2023-07-13T09:49:34;97884.34;;;18.37;58.64
70952;BME280;69214;55.880;37.542;2023-07-13T09:52:04;97887.91;;;18.38;59.00
70952;BME280;69214;55.880;37.542;2023-07-13T09:54:33;97894.22;;;18.30;59.18
70952;BME280;69214;55.880;37.542;2023-07-13T09:57:01;97879.06;;;18.10;60.15
70952;BME280;69214;55.880;37.542;2023-07-13T09:59:33;97881.44;;;17.94;59.48
70952;BME280;69214;55.880;37.542;2023-07-13T10:02:00;97880.53;;;17.76;61.26
70952;BME280;69214;55.880;37.542;2023-07-13T10:04:33;97890.81;;;17.62;60.31
70952;BME280;69214;55.880;37.542;2023-07-13T10:07:12;97899.88;;;17.54;60.40
70952;BME280;69214;55.880;37.542;2023-07-13T10:09:39;97895.91;;;17.46;62.37
70952;BME280;69214;55.880;37.542;2023-07-13T10:12:14;97889.53;;;17.37;60.61
70952;BME280;69214;55.880;37.542;2023-07-13T10:14:42;97896.56;;;17.21;63.66
70952;BME280;69214;55.880;37.542;2023-07-13T10:17:14;97888.34;;;17.07;62.44
70952;BME280;69214;55.880;37.542;2023-07-13T10:19:41;97878.13;;;16.86;63.77
70952;BME280;69214;55.880;37.542;2023-07-13T10:22:19;97895.28;;;16.82;63.68
70952;BME280;69214;55.880;37.542;2023-07-13T10:24:48;97889.50;;;16.70;64.68
70952;BME280;69214;55.880;37.542;2023-07-13T10:27:23;97892.88;;;16.67;64.52
70952;BME280;69214;55.880;37.542;2023-07-13T10:30:00;97886.94;;;16.60;63.58
70952;BME280;69214;55.880;37.542;2023-07-13T10:32:30;97884.31;;;16.55;64.91
70952;BME280;69214;55.880;37.542;2023-07-13T10:34:56;97883.91;;;16.48;65.04
70952;BME280;69214;55.880;37.542;2023-07-13T10:37:27;97889.03;;;16.41;63.92
70952;BME280;69214;55.880;37.542;2023-07-13T10:39:54;97898.50;;;16.35;65.03
70952;BME280;69214;55.880;37.542;2023-07-13T10:42:50;97897.28;;;16.27;62.13
70952;BME280;69214;55.880;37.542;2023-07-13T10:45:20;97900.56;;;16.15;64.81
70952;BME280;69214;55.880;37.542;2023-07-13T10:47:48;97899.44;;;16.03;65.60
70952;BME280;69214;55.880;37.542;2023-07-13T10:50:25;97892.50;;;15.92;64.20
70952;BME280;69214;55.880;37.542;2023-07-13T10:52:55;97895.97;;;15.83;64.16
70952;BME280;69214;55.880;37.542;2023-07-13T10:58:03;97900.53;;;15.61;66.20
70952;BME280;69214;55.880;37.542;2023-07-13T11:00:47;97916.41;;;15.64;64.59
70952;BME280;69214;55.880;37.542;2023-07-13T11:03:16;97903.28;;;15.61;65.96
70952;BME280;69214;55.880;37.542;2023-07-13T11:05:43;97908.75;;;15.61;66.42
70952;BME280;69214;55.880;37.542;2023-07-13T11:10:53;97903.19;;;15.66;64.58
70952;BME280;69214;55.880;37.542;2023-07-13T11:21:28;97911.44;;;15.66;66.75
70952;BME280;69214;55.880;37.542;2023-07-13T11:24:03;97898.09;;;15.73;64.48
70952;BME280;69214;55.880;37.542;2023-07-13T11:31:54;97910.22;;;15.85;65.59
70952;BME280;69214;55.880;37.542;2023-07-13T11:34:37;97914.41;;;15.97;64.03
70952;BME280;69214;55.880;37.542;2023-07-13T11:37:11;97907.06;;;15.92;64.60
70952;BME280;69214;55.880;37.542;2023-07-13T11:39:42;97923.28;;;15.94;64.79
70952;BME280;69214;55.880;37.542;2023-07-13T11:42:16;97916.03;;;15.84;64.94
70952;BME280;69214;55.880;37.542;2023-07-13T11:44:46;97917.47;;;15.81;66.62
70952;BME280;69214;55.880;37.542;2023-07-13T11:47:21;97918.78;;;15.84;65.13
70952;BME280;69214;55.880;37.542;2023-07-13T11:49:55;97913.28;;;15.84;65.64
70952;BME280;69214;55.880;37.542;2023-07-13T11:52:35;97921.03;;;15.82;65.48
70952;BME280;69214;55.880;37.542;2023-07-13T11:55:08;97916.94;;;15.79;67.43
70952;BME280;69214;55.880;37.542;2023-07-13T11:57:44;97917.47;;;15.81;67.73
70952;BME280;69214;55.880;37.542;2023-07-13T12:00:15;97911.25;;;15.76;67.60
70952;BME280;69214;55.880;37.542;2023-07-13T12:02:45;97926.84;;;15.80;68.14
70952;BME280;69214;55.880;37.542;2023-07-13T12:05:16;97927.94;;;15.79;67.18
70952;BME280;69214;55.880;37.542;2023-07-13T12:07:47;97924.91;;;15.81;69.27
70952;BME280;69214;55.880;37.542;2023-07-13T12:10:20;97926.44;;;15.87;67.02
70952;BME280;69214;55.880;37.542;2023-07-13T12:13:02;97922.47;;;15.93;67.13
70952;BME280;69214;55.880;37.542;2023-07-13T12:15:37;97919.72;;;16.07;66.70
70952;BME280;69214;55.880;37.542;2023-07-13T12:18:14;97917.78;;;16.21;66.76
70952;BME280;69214;55.880;37.542;2023-07-13T12:20:41;97910.13;;;16.32;68.88
70952;BME280;69214;55.880;37.542;2023-07-13T12:23:31;97913.78;;;16.41;66.09
70952;BME280;69214;55.880;37.542;2023-07-13T12:26:00;97907.47;;;16.40;67.97
70952;BME280;69214;55.880;37.542;2023-07-13T12:28:36;97912.78;;;16.37;66.71
70952;BME280;69214;55.880;37.542;2023-07-13T12:31:40;97895.78;;;16.21;66.82
70952;BME280;69214;55.880;37.542;2023-07-13T12:34:09;97911.38;;;16.26;67.99
70952;BME280;69214;55.880;37.542;2023-07-13T12:36:40;97903.81;;;16.17;68.47
70952;BME280;69214;55.880;37.542;2023-07-13T12:39:14;97905.88;;;16.12;67.82
70952;BME280;69214;55.880;37.542;2023-07-13T12:41:41;97912.50;;;16.11;69.71
70952;BME280;69214;55.880;37.542;2023-07-13T12:44:15;97911.47;;;16.07;67.85
70952;BME280;69214;55.880;37.542;2023-07-13T12:46:53;97903.53;;;16.05;67.25
70952;BME280;69214;55.880;37.542;2023-07-13T12:49:23;97894.25;;;16.01;68.54
70952;BME280;69214;55.880;37.542;2023-07-13T12:51:50;97902.69;;;16.05;69.53
70952;BME280;69214;55.880;37.542;2023-07-13T12:54:18;97894.97;;;16.07;69.12
70952;BME280;69214;55.880;37.542;2023-07-13T12:56:49;97898.41;;;16.12;68.33
70952;BME280;69214;55.880;37.542;2023-07-13T12:59:20;97906.16;;;16.10;68.83
70952;BME280;69214;55.880;37.542;2023-07-13T13:01:47;97882.31;;;15.92;69.34
70952;BME280;69214;55.880;37.542;2023-07-13T13:04:15;97904.84;;;16.08;69.09
70952;BME280;69214;55.880;37.542;2023-07-13T13:06:42;97914.53;;;16.05;69.72
70952;BME280;69214;55.880;37.542;2023-07-13T13:09:12;97900.97;;;16.09;68.81
70952;BME280;69214;55.880;37.542;2023-07-13T13:11:39;97889.97;;;16.09;69.21
70952;BME280;69214;55.880;37.542;2023-07-13T13:14:06;97893.84;;;16.08;69.72
70952;BME280;69214;55.880;37.542;2023-07-13T13:16:35;97895.38;;;16.00;69.53
70952;BME280;69214;55.880;37.542;2023-07-13T13:19:13;97898.22;;;15.95;67.91
70952;BME280;69214;55.880;37.542;2023-07-13T13:21:39;97900.56;;;15.88;70.03
70952;BME280;69214;55.880;37.542;2023-07-13T13:24:14;97891.50;;;15.87;68.72
70952;BME280;69214;55.880;37.542;2023-07-13T13:26:41;97902.50;;;15.87;69.57